Bekkevoort, Belgium
Current Conditions -  °F | °C
As of 7:03 PM on Friday 24 Oct 2014 (Local Time) from EBDT Reporting Station
Broken Clouds Broken Clouds  
Wind Chill: 54°   Ceiling: 2000
Heat Index: 54°   Visibility: 2.9mi
Dew Point: 48°   Wind: 9mph
Humidity: 82%   Direction: 190°S
Pressure: 30.06"   Gusts: NA
Location:  50.94°N, 4.97°E
Report Text: EBDT 241703Z AUTO 19008KT 4700 FEW017/// BKN020/// BKN032/// 12/09 Q1018 GRN
Loading
Personal Weather Stations






























Interactive Weather Map
Tropical Storm Tracking
New forecast layout! Learn more

10-Day Weather Forecast

Advertisements
Track Severe Weather on mobile